Time;durP1;ratioP1;P1;durP2;ratioP2;P2;SDS_P1;SDS_P2;PMS_P1;PMS_P2;Temp;Humidity;BMP_temperature;BMP_pressure;BME280_temperature;BME280_humidity;BME280_pressure;Samples;Min_cycle;Max_cycle;Signal;HPM_P1;HPM_P2
2023/04/16 00:00:14;;;;;;;2.37;2.17;;;;;;;15.10;56.13;99004.13;5073652;28;20607;-70
2023/04/16 00:02:42;;;;;;;3.17;1.90;;;;;;;15.09;56.60;99002.50;5073992;28;20196;-70
2023/04/16 00:05:09;;;;;;;1.90;1.73;;;;;;;15.13;56.27;99001.00;5074255;28;20227;-70
2023/04/16 00:07:36;;;;;;;5.53;2.20;;;;;;;15.05;57.15;98990.66;5073475;28;20696;-70
2023/04/16 00:10:03;;;;;;;4.53;1.90;;;;;;;14.96;57.54;98994.72;5073912;28;20265;-71
2023/04/16 00:12:29;;;;;;;2.23;2.10;;;;;;;14.87;58.08;99001.50;5073782;28;20242;-70
2023/04/16 00:14:56;;;;;;;3.47;2.30;;;;;;;14.76;59.65;98988.97;5073796;28;20192;-70
2023/04/16 00:17:23;;;;;;;3.93;2.27;;;;;;;14.73;59.11;98992.13;5073275;28;20253;-70
2023/04/16 00:19:51;;;;;;;5.53;2.07;;;;;;;14.72;59.24;98987.81;5073384;28;20636;-70
2023/04/16 00:22:17;;;;;;;3.20;2.13;;;;;;;14.76;59.07;98996.19;5073125;28;20265;-70
2023/04/16 00:24:44;;;;;;;2.20;1.97;;;;;;;14.82;58.69;99005.91;5069668;28;20196;-70
2023/04/16 00:27:11;;;;;;;4.83;2.70;;;;;;;14.82;59.45;99000.56;5073086;28;20619;-71
2023/04/16 00:29:37;;;;;;;3.43;2.23;;;;;;;14.83;59.86;99005.69;5073464;28;20191;-71
2023/04/16 00:32:05;;;;;;;2.40;2.20;;;;;;;14.84;59.20;99010.00;5072912;28;20191;-71
2023/04/16 00:34:31;;;;;;;4.87;2.60;;;;;;;14.89;59.20;99018.13;5073409;28;20202;-71
2023/04/16 00:36:59;;;;;;;3.30;2.40;;;;;;;14.90;57.83;99019.75;5073112;28;20192;-71
2023/04/16 00:39:26;;;;;;;5.67;1.90;;;;;;;14.85;58.80;99011.63;5073158;28;20624;-71
2023/04/16 00:41:53;;;;;;;3.67;1.90;;;;;;;14.80;59.72;99014.19;5072924;28;20696;-71
2023/04/16 00:44:19;;;;;;;5.43;1.70;;;;;;;14.75;59.60;99015.94;5056965;28;20193;-70
2023/04/16 00:46:46;;;;;;;3.30;2.37;;;;;;;14.64;60.88;99016.75;5053399;28;20226;-71
2023/04/16 00:49:13;;;;;;;4.73;2.30;;;;;;;14.55;61.33;99026.97;5053045;28;20250;-71
2023/04/16 00:51:40;;;;;;;2.53;2.13;;;;;;;14.47;62.04;99016.66;5052775;28;20735;-71
2023/04/16 00:54:08;;;;;;;4.80;2.10;;;;;;;14.34;62.31;99019.53;5052901;28;20254;-71
2023/04/16 00:56:35;;;;;;;2.33;2.03;;;;;;;14.32;62.87;99021.66;5052650;28;20189;-71
2023/04/16 00:59:02;;;;;;;3.80;1.90;;;;;;;14.35;63.12;99013.19;5052929;28;20193;-70
2023/04/16 01:01:29;;;;;;;2.50;2.20;;;;;;;14.39;62.61;99017.00;5052476;28;20697;-69
2023/04/16 01:03:56;;;;;;;3.10;2.50;;;;;;;14.40;63.12;99004.44;5052702;28;20201;-69
2023/04/16 01:06:22;;;;;;;5.47;3.10;;;;;;;14.29;62.73;99000.72;5052718;28;20193;-69
2023/04/16 01:08:49;;;;;;;5.97;3.60;;;;;;;14.27;62.92;99008.16;5052649;28;20246;-69
2023/04/16 01:11:17;;;;;;;6.53;3.37;;;;;;;14.29;63.38;99005.28;5052686;28;20196;-70
2023/04/16 01:13:44;;;;;;;6.87;3.37;;;;;;;14.27;63.53;99013.50;5061591;28;20217;-69
2023/04/16 01:16:12;;;;;;;4.07;2.70;;;;;;;14.20;63.58;99006.59;5072590;28;20191;-70
2023/04/16 01:18:39;;;;;;;6.37;2.90;;;;;;;14.12;62.74;99015.78;5072448;28;20192;-70
2023/04/16 01:21:07;;;;;;;6.10;2.70;;;;;;;14.03;62.74;99024.34;5072183;28;20262;-69
2023/04/16 01:23:34;;;;;;;3.67;3.20;;;;;;;13.91;62.87;99024.31;5072314;28;20188;-70
2023/04/16 01:26:01;;;;;;;5.97;4.23;;;;;;;13.83;62.99;99019.31;5071675;28;20253;-70
2023/04/16 01:28:27;;;;;;;4.80;3.43;;;;;;;13.71;63.58;99020.31;5072402;28;20254;-70
2023/04/16 01:30:54;;;;;;;8.20;3.00;;;;;;;13.63;64.91;99016.13;5072369;28;20200;-70
2023/04/16 01:33:21;;;;;;;4.53;3.67;;;;;;;13.59;65.15;99008.78;5071817;28;20665;-71
2023/04/16 01:35:48;;;;;;;6.13;3.57;;;;;;;13.46;66.07;99007.13;5071534;28;20628;-70
2023/04/16 01:38:16;;;;;;;7.80;3.60;;;;;;;13.51;66.68;99007.25;5071886;28;20223;-70
2023/04/16 01:40:43;;;;;;;15.43;4.20;;;;;;;13.54;66.75;99014.81;5071594;28;20705;-70
2023/04/16 01:43:09;;;;;;;4.63;2.90;;;;;;;13.55;66.88;99008.44;5069462;28;20586;-70
2023/04/16 01:45:36;;;;;;;4.57;2.90;;;;;;;13.58;67.43;99010.66;5071359;28;20199;-70
2023/04/16 01:48:03;;;;;;;3.30;2.83;;;;;;;13.66;67.21;99014.84;5071664;28;20227;-70
2023/04/16 01:50:30;;;;;;;3.63;3.10;;;;;;;13.69;66.96;99015.19;5071806;28;20245;-70
2023/04/16 01:52:57;;;;;;;5.40;2.93;;;;;;;13.67;67.03;99006.63;5071562;28;20196;-70
2023/04/16 01:55:26;;;;;;;3.43;2.97;;;;;;;13.66;66.75;99015.66;5072003;28;20253;-70
2023/04/16 01:57:52;;;;;;;2.83;2.60;;;;;;;13.57;66.98;99011.69;5071657;28;20279;-70
2023/04/16 02:00:19;;;;;;;3.53;3.23;;;;;;;13.39;66.87;98993.06;5071493;28;20192;-70
2023/04/16 02:02:47;;;;;;;4.10;2.67;;;;;;;13.36;67.28;98998.03;5071549;28;20269;-70
2023/04/16 02:05:14;;;;;;;4.10;3.03;;;;;;;13.35;67.42;98996.41;5071744;28;20202;-70
2023/04/16 02:07:41;;;;;;;5.67;3.10;;;;;;;13.40;67.27;99008.00;5071903;28;20625;-69
2023/04/16 02:10:09;;;;;;;4.80;3.10;;;;;;;13.39;67.35;99003.72;5071669;28;20229;-70
2023/04/16 02:12:37;;;;;;;2.80;2.57;;;;;;;13.41;67.09;98993.66;5070100;28;20196;-70
2023/04/16 02:15:05;;;;;;;4.53;2.70;;;;;;;13.39;66.81;98998.38;5051624;28;20269;-70
2023/04/16 02:17:31;;;;;;;7.67;2.73;;;;;;;13.33;67.45;99004.63;5051649;28;20246;-70
2023/04/16 02:19:58;;;;;;;2.57;2.37;;;;;;;13.29;67.44;98997.31;5051698;28;20211;-69
2023/04/16 02:22:25;;;;;;;3.67;3.00;;;;;;;13.27;67.33;99002.06;5051099;28;20307;-70
2023/04/16 02:24:51;;;;;;;4.47;2.80;;;;;;;13.14;67.63;99000.38;5051746;28;20646;-70
2023/04/16 02:27:18;;;;;;;3.37;3.03;;;;;;;13.10;67.35;99009.84;5051940;28;20564;-70
2023/04/16 02:29:46;;;;;;;5.27;3.20;;;;;;;13.02;68.02;98998.69;5051573;28;20200;-71
2023/04/16 02:32:13;;;;;;;4.33;3.30;;;;;;;12.97;68.43;99007.34;5051300;28;20238;-71
2023/04/16 02:34:40;;;;;;;3.10;2.80;;;;;;;12.86;69.02;99013.38;5051209;28;20739;-71
2023/04/16 02:37:07;;;;;;;3.43;3.13;;;;;;;12.83;69.26;99008.47;5051687;28;20220;-71
2023/04/16 02:39:33;;;;;;;5.47;2.93;;;;;;;12.73;69.10;99010.03;5059308;28;20188;-71
2023/04/16 02:42:01;;;;;;;7.00;3.40;;;;;;;12.65;69.49;99019.13;5071468;28;20666;-71
2023/04/16 02:44:28;;;;;;;3.17;2.93;;;;;;;12.59;70.45;99012.03;5068544;28;20226;-71
2023/04/16 02:46:56;;;;;;;5.93;3.23;;;;;;;12.63;70.58;99013.22;5071536;28;20290;-71
2023/04/16 02:49:23;;;;;;;4.43;4.03;;;;;;;12.68;70.19;99010.72;5074506;28;20196;-70
2023/04/16 02:51:49;;;;;;;4.07;3.37;;;;;;;12.65;70.06;99013.81;5074837;28;20196;-70
2023/04/16 02:54:16;;;;;;;4.20;3.30;;;;;;;12.64;70.02;99014.84;5075184;28;20253;-71
2023/04/16 02:56:43;;;;;;;3.27;2.93;;;;;;;12.67;70.13;99009.09;5075302;28;20192;-71
2023/04/16 02:59:09;;;;;;;8.43;3.10;;;;;;;12.75;69.59;99011.47;5075155;28;20257;-71
2023/04/16 03:01:36;;;;;;;6.60;3.13;;;;;;;12.83;69.56;99011.13;5075059;28;20281;-70
2023/04/16 03:04:04;;;;;;;5.90;3.47;;;;;;;12.87;68.99;99020.31;5075043;28;20196;-70
2023/04/16 03:06:31;;;;;;;6.23;3.60;;;;;;;12.93;68.77;99022.13;5074854;28;20722;-70
2023/04/16 03:08:58;;;;;;;4.23;3.50;;;;;;;12.93;68.77;99026.63;5075061;28;20203;-71
2023/04/16 03:11:24;;;;;;;3.30;2.97;;;;;;;12.93;68.51;99030.13;5075226;28;20253;-71
2023/04/16 03:13:52;;;;;;;4.57;4.17;;;;;;;12.86;69.06;99021.38;5062775;28;20666;-70
2023/04/16 03:16:19;;;;;;;4.63;4.10;;;;;;;12.89;68.60;99018.28;5055110;28;20262;-70
2023/04/16 03:18:46;;;;;;;4.60;3.60;;;;;;;12.91;68.76;99018.06;5054944;28;20192;-70
2023/04/16 03:21:14;;;;;;;7.60;4.70;;;;;;;12.91;68.94;99018.06;5054536;28;20222;-70
2023/04/16 03:23:40;;;;;;;9.23;4.60;;;;;;;12.95;68.46;99017.38;5054831;28;20202;-70
2023/04/16 03:26:07;;;;;;;10.70;4.83;;;;;;;13.01;68.66;99023.69;5054668;28;20200;-70
2023/04/16 03:28:34;;;;;;;6.73;4.33;;;;;;;13.04;68.58;99024.09;5054371;28;20231;-70
2023/04/16 03:31:00;;;;;;;9.93;5.10;;;;;;;13.03;68.55;99025.09;5054330;28;20236;-70
2023/04/16 03:33:27;;;;;;;5.57;4.93;;;;;;;13.05;68.57;99023.03;5054347;28;20727;-70
2023/04/16 03:35:57;;;;;;;5.37;4.13;;;;;;;13.06;68.43;99029.16;5054209;28;20193;-70
2023/04/16 03:38:25;;;;;;;5.00;4.50;;;;;;;13.03;68.47;99037.63;5054698;28;20311;-70
2023/04/16 03:40:52;;;;;;;4.83;4.10;;;;;;;13.10;68.66;99041.00;5073097;28;20728;-70
2023/04/16 03:43:19;;;;;;;4.73;4.33;;;;;;;13.15;68.21;99039.31;5061493;28;20855;-70
2023/04/16 03:45:45;;;;;;;4.17;3.70;;;;;;;13.10;68.40;99041.84;5053509;28;20201;-70
2023/04/16 03:48:12;;;;;;;6.07;3.77;;;;;;;13.03;68.89;99041.09;5054392;28;20196;-70
2023/04/16 03:50:39;;;;;;;4.80;4.10;;;;;;;13.02;68.90;99044.00;5053933;28;20243;-70
2023/04/16 03:53:06;;;;;;;9.47;4.93;;;;;;;13.05;68.94;99054.22;5064312;28;20200;-70
2023/04/16 03:55:35;;;;;;;9.30;4.37;;;;;;;13.01;68.98;99056.50;5073774;28;20237;-70
2023/04/16 03:58:02;;;;;;;5.73;4.37;;;;;;;13.02;68.59;99060.81;5073864;28;20726;-70
2023/04/16 04:00:29;;;;;;;5.47;4.97;;;;;;;12.97;69.29;99052.66;5073694;28;20279;-70
2023/04/16 04:02:56;;;;;;;6.80;4.60;;;;;;;12.99;69.30;99049.78;5073894;28;20600;-70
2023/04/16 04:05:22;;;;;;;6.40;4.97;;;;;;;13.03;68.71;99049.09;5074021;28;20190;-70
2023/04/16 04:07:49;;;;;;;10.93;5.10;;;;;;;13.00;69.80;99052.22;5074052;28;20253;-71
2023/04/16 04:10:16;;;;;;;7.83;5.37;;;;;;;12.86;70.19;99050.69;5073817;28;20258;-70
2023/04/16 04:12:44;;;;;;;6.13;5.63;;;;;;;12.81;70.83;99053.22;5071777;28;20242;-71
2023/04/16 04:15:11;;;;;;;5.57;5.07;;;;;;;12.83;71.23;99053.00;5073446;28;20242;-70
2023/04/16 04:17:38;;;;;;;8.73;6.53;;;;;;;12.88;71.19;99051.31;5073689;28;20253;-70
2023/04/16 04:20:06;;;;;;;13.40;6.13;;;;;;;12.95;70.98;99054.69;5072986;28;20231;-70
2023/04/16 04:22:32;;;;;;;7.03;6.30;;;;;;;12.92;70.81;99055.16;5073663;28;20297;-70
2023/04/16 04:24:59;;;;;;;9.73;6.27;;;;;;;12.90;71.23;99057.22;5073544;28;20196;-70
2023/04/16 04:27:26;;;;;;;8.40;6.03;;;;;;;12.84;72.04;99038.63;5073423;28;20245;-70
2023/04/16 04:29:54;;;;;;;6.87;6.27;;;;;;;12.85;71.74;99050.91;5073114;28;20192;-70
2023/04/16 04:32:20;;;;;;;7.07;6.37;;;;;;;12.88;72.07;99069.97;5073490;28;20200;-71
2023/04/16 04:34:47;;;;;;;11.90;6.40;;;;;;;12.91;72.14;99058.03;5073382;28;20200;-71
2023/04/16 04:37:14;;;;;;;8.53;6.53;;;;;;;12.98;71.59;99059.63;5073149;28;20269;-71
2023/04/16 04:39:41;;;;;;;6.60;6.00;;;;;;;13.02;71.42;99055.47;5073301;28;20206;-70
2023/04/16 04:42:08;;;;;;;12.93;6.23;;;;;;;13.02;71.18;99044.00;5072276;28;20228;-71
2023/04/16 04:44:34;;;;;;;10.30;6.53;;;;;;;13.14;71.43;99051.03;5070871;28;20730;-71
2023/04/16 04:47:02;;;;;;;11.03;6.20;;;;;;;13.26;71.20;99056.41;5073160;28;20573;-71
2023/04/16 04:49:30;;;;;;;7.47;5.70;;;;;;;13.31;70.38;99065.38;5072876;28;20734;-71
2023/04/16 04:51:57;;;;;;;7.07;5.97;;;;;;;13.37;69.61;99053.00;5071748;28;20700;-71
2023/04/16 04:54:23;;;;;;;10.10;5.40;;;;;;;13.33;69.31;99052.66;5073256;28;20623;-70
2023/04/16 04:56:51;;;;;;;5.80;5.30;;;;;;;13.40;69.02;99058.69;5072886;28;20192;-71
2023/04/16 04:59:18;;;;;;;6.07;5.00;;;;;;;13.44;67.91;99053.75;5068698;28;20189;-71
2023/04/16 05:01:44;;;;;;;9.13;5.27;;;;;;;13.49;67.92;99057.38;5052671;28;20221;-72
2023/04/16 05:04:12;;;;;;;9.60;6.27;;;;;;;13.58;67.91;99057.84;5051255;28;20657;-71
2023/04/16 05:06:39;;;;;;;8.77;5.80;;;;;;;13.50;67.69;99053.66;5052181;28;20192;-72
2023/04/16 05:09:10;;;;;;;10.33;6.00;;;;;;;13.53;67.90;99063.06;5052158;28;20678;-70
2023/04/16 05:11:37;;;;;;;10.50;6.60;;;;;;;13.62;68.27;99067.03;5051529;28;20189;-71
2023/04/16 05:14:03;;;;;;;9.70;6.90;;;;;;;13.67;68.51;99065.34;5067093;28;20199;-71
2023/04/16 05:16:30;;;;;;;44.60;8.30;;;;;;;13.77;69.33;99075.47;5072521;28;20192;-70
2023/04/16 05:18:57;;;;;;;14.00;6.30;;;;;;;13.85;68.42;99073.28;5072252;28;20329;-71
2023/04/16 05:21:26;;;;;;;44.37;7.30;;;;;;;13.72;67.96;99046.78;5071909;28;20192;-70
2023/04/16 05:23:53;;;;;;;18.77;5.83;;;;;;;13.91;68.18;99072.38;5072262;28;20227;-70
2023/04/16 05:26:20;;;;;;;15.80;5.40;;;;;;;14.02;67.40;99078.81;5072084;28;20196;-69
2023/04/16 05:28:46;;;;;;;12.03;4.90;;;;;;;14.15;66.31;99078.59;5071967;28;20196;-69
2023/04/16 05:31:13;;;;;;;117.07;13.43;;;;;;;14.24;65.24;99080.75;5072058;28;20192;-69
2023/04/16 05:33:40;;;;;;;28.43;6.00;;;;;;;14.35;65.52;99074.63;5072182;28;20192;-69
2023/04/16 05:36:07;;;;;;;11.83;4.80;;;;;;;14.64;64.75;99073.72;5072155;28;20626;-70
2023/04/16 05:38:35;;;;;;;7.30;4.57;;;;;;;14.82;63.10;99076.25;5072074;28;20228;-70
2023/04/16 05:41:01;;;;;;;8.70;4.80;;;;;;;15.15;61.89;99078.34;5051927;28;20258;-70
2023/04/16 05:43:28;;;;;;;9.93;5.00;;;;;;;15.68;61.32;99077.06;5062918;28;20232;-70
2023/04/16 05:45:55;;;;;;;5.67;4.13;;;;;;;16.59;57.78;99090.22;5071529;28;20238;-70
2023/04/16 05:48:21;;;;;;;12.37;4.40;;;;;;;17.36;54.65;99097.22;5071921;28;20269;-65
2023/04/16 05:50:49;;;;;;;5.60;3.73;;;;;;;18.21;52.89;99094.75;5071849;28;20390;-71
2023/04/16 05:53:17;;;;;;;8.17;3.00;;;;;;;19.25;58.83;99069.72;5071479;28;20670;-72
2023/04/16 05:55:45;;;;;;;5.30;3.90;;;;;;;20.31;46.44;99085.16;5071827;28;20228;-80
2023/04/16 05:58:12;;;;;;;6.40;3.57;;;;;;;21.27;48.55;99083.22;5071790;28;20229;-71
2023/04/16 06:00:39;;;;;;;7.17;3.67;;;;;;;22.15;41.07;99096.63;5071743;28;20285;-74
2023/04/16 06:03:06;;;;;;;3.83;3.13;;;;;;;22.17;44.22;99097.13;5071548;28;20345;-72
2023/04/16 06:05:33;;;;;;;4.60;3.30;;;;;;;22.91;39.96;99094.94;5071669;28;20196;-72
2023/04/16 06:07:59;;;;;;;6.60;4.30;;;;;;;22.50;38.13;99088.25;5070791;28;20191;-75
2023/04/16 06:10:26;;;;;;;4.07;3.27;;;;;;;22.42;38.69;99088.84;5071303;28;20191;-75
2023/04/16 06:12:55;;;;;;;2.77;2.47;;;;;;;22.48;39.10;99095.88;5068744;28;20199;-77
2023/04/16 06:15:21;;;;;;;3.40;2.43;;;;;;;22.84;39.97;99086.38;5071185;28;20514;-76
2023/04/16 06:17:49;;;;;;;4.07;3.20;;;;;;;23.01;36.70;99075.91;5071496;28;20253;-74
2023/04/16 06:20:16;;;;;;;6.00;3.30;;;;;;;22.77;38.86;99072.34;5061261;28;20192;-73
2023/04/16 06:22:42;;;;;;;8.27;3.03;;;;;;;23.26;41.17;99062.09;5053441;28;20274;-74
2023/04/16 06:25:09;;;;;;;4.63;3.10;;;;;;;23.51;36.82;99071.81;5055976;28;20200;-77
2023/04/16 06:27:36;;;;;;;7.13;2.90;;;;;;;23.27;37.37;99066.41;5068178;28;20257;-74
2023/04/16 06:30:06;;;;;;;3.50;2.80;;;;;;;23.21;37.69;99069.47;5075462;28;20201;-75
2023/04/16 06:32:33;;;;;;;3.40;2.37;;;;;;;23.39;39.30;99072.25;5072949;28;20738;-75
2023/04/16 06:35:00;;;;;;;2.90;2.70;;;;;;;23.45;36.01;99068.41;5075392;28;20192;-76
2023/04/16 06:37:26;;;;;;;6.30;2.80;;;;;;;22.88;37.01;99067.63;5075119;28;20231;-75
2023/04/16 06:39:53;;;;;;;3.73;2.53;;;;;;;22.43;37.99;99076.94;5075290;28;20185;-73
2023/04/16 06:42:20;;;;;;;3.73;2.80;;;;;;;22.63;40.33;99065.16;5074637;28;20224;-75
2023/04/16 06:44:47;;;;;;;3.73;3.37;;;;;;;23.05;37.95;99070.69;5074830;28;20658;-73
2023/04/16 06:47:16;;;;;;;5.80;3.70;;;;;;;23.65;38.07;99059.97;5074962;28;20196;-75
2023/04/16 06:49:42;;;;;;;3.40;3.10;;;;;;;23.93;37.71;99059.09;5072976;28;20196;-72
2023/04/16 06:52:09;;;;;;;4.43;3.13;;;;;;;24.60;37.32;99072.22;5068005;28;20209;-74
2023/04/16 06:54:36;;;;;;;6.23;2.70;;;;;;;25.25;36.40;99077.56;5074459;28;20190;-77
2023/04/16 06:57:03;;;;;;;3.70;2.43;;;;;;;25.89;36.00;99083.59;5069460;28;20241;-67
2023/04/16 06:59:29;;;;;;;2.80;2.60;;;;;;;26.50;32.62;99088.50;5075395;28;20665;-67
2023/04/16 07:01:57;;;;;;;3.67;2.93;;;;;;;26.67;32.55;99077.75;5077621;28;20256;-68
2023/04/16 07:04:25;;;;;;;4.47;2.70;;;;;;;26.97;31.54;99064.13;5070997;28;20223;-69
2023/04/16 07:06:52;;;;;;;4.53;2.77;;;;;;;27.11;29.97;99077.69;5073974;28;20200;-68
2023/04/16 07:09:19;;;;;;;4.20;2.50;;;;;;;26.68;32.88;99054.81;5068062;28;20200;-68
2023/04/16 07:11:47;;;;;;;3.87;2.77;;;;;;;26.88;31.08;99076.94;5071215;28;20207;-69
2023/04/16 07:14:14;;;;;;;2.97;2.40;;;;;;;27.02;29.93;99087.72;5070675;28;20224;-69
2023/04/16 07:16:40;;;;;;;4.50;2.57;;;;;;;26.37;30.13;99075.75;5073983;28;20249;-69
2023/04/16 07:19:07;;;;;;;4.13;2.73;;;;;;;26.40;32.07;99069.66;5074265;28;20241;-67
2023/04/16 07:21:35;;;;;;;5.00;3.07;;;;;;;26.07;30.65;99074.53;5072403;28;20665;-72
2023/04/16 07:24:02;;;;;;;7.87;2.63;;;;;;;25.60;31.21;99066.78;5063283;28;20200;-67
2023/04/16 07:26:29;;;;;;;4.67;2.23;;;;;;;25.45;33.25;99058.16;5074382;28;20265;-67
2023/04/16 07:28:56;;;;;;;5.27;2.90;;;;;;;25.00;32.89;99040.78;5073767;28;20196;-70
2023/04/16 07:31:22;;;;;;;6.50;2.73;;;;;;;24.95;34.60;99055.28;5071038;28;20191;-75
2023/04/16 07:33:49;;;;;;;3.83;2.57;;;;;;;25.01;33.75;99056.00;5071580;28;20734;-69
2023/04/16 07:36:16;;;;;;;5.73;2.67;;;;;;;25.55;34.14;99047.88;5074428;28;20274;-68
2023/04/16 07:38:44;;;;;;;8.27;3.00;;;;;;;25.86;32.27;99039.84;5073846;28;20223;-69
2023/04/16 07:41:11;;;;;;;3.57;3.03;;;;;;;25.24;33.68;99032.44;5072518;28;20196;-69
2023/04/16 07:43:38;;;;;;;3.07;2.77;;;;;;;25.03;33.18;99024.69;5073495;28;20203;-69
2023/04/16 07:46:05;;;;;;;3.60;2.80;;;;;;;25.61;32.92;99046.66;5073534;28;20188;-69
2023/04/16 07:48:32;;;;;;;3.17;2.97;;;;;;;25.86;32.18;99042.56;5073130;28;20192;-69
2023/04/16 07:50:58;;;;;;;4.07;2.80;;;;;;;25.77;32.36;99033.53;5073392;28;20998;-69
2023/04/16 07:53:25;;;;;;;5.50;2.87;;;;;;;25.71;33.39;99026.56;5073590;28;20216;-68
2023/04/16 07:55:53;;;;;;;4.33;2.87;;;;;;;25.72;32.32;99025.50;5073778;28;20636;-69
2023/04/16 07:58:20;;;;;;;2.87;2.30;;;;;;;25.97;33.09;99022.22;5073701;28;20233;-69
2023/04/16 08:00:47;;;;;;;3.83;3.10;;;;;;;26.37;32.03;99030.22;5072660;28;20245;-69
2023/04/16 08:03:14;;;;;;;4.27;3.00;;;;;;;26.15;31.76;99023.97;5064978;28;20195;-68
2023/04/16 08:05:41;;;;;;;6.57;3.43;;;;;;;25.76;32.24;99029.22;5072727;28;20342;-68
2023/04/16 08:08:08;;;;;;;4.13;3.17;;;;;;;25.38;33.61;99017.75;5073534;28;20215;-66
2023/04/16 08:10:35;;;;;;;4.83;2.80;;;;;;;25.44;34.55;99029.34;5073783;28;20192;-68
2023/04/16 08:13:03;;;;;;;2.80;2.60;;;;;;;25.43;34.14;99022.31;5073754;28;20284;-67
2023/04/16 08:15:30;;;;;;;7.70;3.10;;;;;;;25.63;33.58;99032.75;5073390;28;20239;-65
2023/04/16 08:17:56;;;;;;;4.53;2.47;;;;;;;25.74;33.18;99055.91;5073584;28;20257;-67
2023/04/16 08:20:23;;;;;;;5.50;2.83;;;;;;;25.02;33.66;99055.69;5073708;28;20196;-68
2023/04/16 08:22:50;;;;;;;3.27;2.60;;;;;;;24.95;34.46;99052.56;5073661;28;20715;-68
2023/04/16 08:25:17;;;;;;;5.77;2.70;;;;;;;25.22;35.36;99053.69;5072733;28;20252;-67
2023/04/16 08:27:43;;;;;;;4.10;3.00;;;;;;;25.44;33.12;99056.56;5063014;28;21880;-80
2023/04/16 08:30:12;;;;;;;3.77;3.10;;;;;;;25.32;33.14;99042.66;5068481;28;20208;-66
2023/04/16 08:32:39;;;;;;;3.80;2.90;;;;;;;25.13;33.76;99047.34;5070183;28;20249;-71
2023/04/16 08:35:06;;;;;;;3.10;2.77;;;;;;;25.17;34.83;99040.19;5072554;28;20196;-67
2023/04/16 08:37:33;;;;;;;3.90;3.20;;;;;;;24.95;33.23;99033.53;5066942;28;20236;-68
2023/04/16 08:40:01;;;;;;;5.73;2.87;;;;;;;24.95;35.41;99038.19;5054412;28;20296;-67
2023/04/16 08:42:31;;;;;;;2.90;2.70;;;;;;;24.79;34.56;99034.13;5050910;28;20224;-67
2023/04/16 08:45:06;;;;;;;4.53;2.73;;;;;;;24.66;36.47;99046.56;5050635;28;20196;-65
2023/04/16 08:47:35;;;;;;;5.47;3.30;;;;;;;24.80;35.10;99031.09;5051468;28;20195;-66
2023/04/16 08:50:03;;;;;;;4.47;3.80;;;;;;;24.57;35.60;99026.59;5052514;28;20742;-65
2023/04/16 08:52:31;;;;;;;7.00;2.80;;;;;;;24.14;36.73;98978.19;5050754;28;21545;-83
2023/04/16 08:55:04;;;;;;;6.27;3.40;;;;;;;24.78;36.12;99029.78;5070649;28;20225;-67
2023/04/16 08:57:38;;;;;;;4.70;3.50;;;;;;;25.06;35.40;99026.00;5072421;28;20187;-67
2023/04/16 09:00:07;;;;;;;4.73;3.23;;;;;;;25.48;34.99;99019.47;5072678;28;20241;-66
2023/04/16 09:02:36;;;;;;;5.17;3.10;;;;;;;25.53;34.47;99011.19;5069553;28;20203;-68
2023/04/16 09:05:06;;;;;;;8.00;3.20;;;;;;;25.94;32.73;99014.66;5069717;28;20276;-69
2023/04/16 09:07:34;;;;;;;3.20;3.00;;;;;;;26.04;31.92;99007.06;5067747;28;20245;-71
2023/04/16 09:10:01;;;;;;;7.93;3.47;;;;;;;25.50;33.64;98998.19;5065762;28;20938;-67
2023/04/16 09:12:29;;;;;;;3.83;3.03;;;;;;;24.93;33.76;98997.72;5070822;28;20261;-67
2023/04/16 09:14:58;;;;;;;2.93;2.50;;;;;;;25.24;32.62;98991.66;5070502;28;20266;-67
2023/04/16 09:17:25;;;;;;;4.23;3.20;;;;;;;25.63;32.83;98997.41;5071922;28;20192;-66
2023/04/16 09:19:54;;;;;;;5.67;2.93;;;;;;;25.75;32.03;98990.28;5071583;28;20253;-67
2023/04/16 09:22:21;;;;;;;2.80;2.50;;;;;;;25.97;31.49;98989.56;5070838;28;20219;-68
2023/04/16 09:24:47;;;;;;;3.97;1.93;;;;;;;26.24;31.31;98983.97;5072100;28;20348;-67
2023/04/16 09:27:15;;;;;;;3.70;2.20;;;;;;;26.45;29.31;98988.63;5071422;28;20196;-67
2023/04/16 09:29:42;;;;;;;4.50;2.43;;;;;;;26.63;29.27;98978.66;5071963;28;20200;-68
2023/04/16 09:32:10;;;;;;;3.53;2.47;;;;;;;26.16;29.93;98968.38;5070097;28;20196;-70
2023/04/16 09:34:58;;;;;;;6.87;2.60;;;;;;;25.85;31.07;98971.00;5071518;28;20215;-70
2023/04/16 09:37:26;;;;;;;4.67;2.50;;;;;;;25.47;31.07;98971.63;5055595;28;20215;-69
2023/04/16 09:39:54;;;;;;;4.10;2.10;;;;;;;25.65;31.82;98965.22;5070721;28;20732;-68
2023/04/16 09:42:22;;;;;;;3.83;2.57;;;;;;;25.57;31.51;98974.94;5072079;28;20254;-68
2023/04/16 09:44:50;;;;;;;6.30;2.63;;;;;;;25.85;31.41;98981.09;5071137;28;20208;-68
2023/04/16 09:47:17;;;;;;;3.93;2.50;;;;;;;25.89;30.57;98979.38;5072034;28;20184;-68
2023/04/16 09:49:44;;;;;;;4.97;2.40;;;;;;;25.96;31.89;98972.41;5071058;28;20257;-68
2023/04/16 09:52:15;;;;;;;3.63;2.40;;;;;;;26.25;31.16;98952.94;5067369;28;20563;-68
2023/04/16 09:54:49;;;;;;;4.63;3.90;;;;;;;26.42;30.24;98953.81;5070556;28;20307;-68
2023/04/16 09:57:20;;;;;;;8.00;3.33;;;;;;;26.28;30.64;98960.47;5068092;28;20198;-68
2023/04/16 09:59:47;;;;;;;4.07;3.03;;;;;;;26.41;29.70;98956.88;5071024;28;20274;-68
2023/04/16 10:02:14;;;;;;;3.00;2.70;;;;;;;26.30;30.91;98966.41;5069449;28;20595;-69
2023/04/16 10:04:48;;;;;;;2.93;2.30;;;;;;;26.36;30.25;98959.72;5071347;28;20204;-68
2023/04/16 10:07:17;;;;;;;3.40;2.20;;;;;;;26.28;28.82;98958.56;5071156;28;20246;-68
2023/04/16 10:09:44;;;;;;;2.20;2.10;;;;;;;26.11;30.17;98968.50;5071795;28;20196;-69
2023/04/16 10:12:12;;;;;;;3.97;2.10;;;;;;;25.71;30.29;98972.97;5071448;28;20558;-69
2023/04/16 10:14:39;;;;;;;5.20;2.30;;;;;;;25.95;29.68;98965.38;5071376;28;20314;-69
2023/04/16 10:17:06;;;;;;;5.80;1.83;;;;;;;25.97;30.74;98971.28;5071728;28;20274;-68
2023/04/16 10:19:34;;;;;;;4.33;2.10;;;;;;;26.11;29.11;98973.97;5071337;28;20600;-70
2023/04/16 10:22:01;;;;;;;2.63;2.17;;;;;;;26.08;31.07;98966.41;5071598;28;20227;-68
2023/04/16 10:24:30;;;;;;;3.30;2.03;;;;;;;25.97;30.79;98963.13;5071179;28;20196;-67
2023/04/16 10:26:57;;;;;;;4.17;1.80;;;;;;;26.00;29.38;98956.28;5071092;28;20188;-70
2023/04/16 10:29:27;;;;;;;5.40;2.67;;;;;;;26.21;29.96;98951.94;5070010;28;20196;-69
2023/04/16 10:31:55;;;;;;;2.40;2.13;;;;;;;26.39;30.11;98950.94;5066185;28;20320;-68
2023/04/16 10:34:22;;;;;;;3.27;2.57;;;;;;;26.56;29.53;98937.38;5067672;28;20212;-68
2023/04/16 10:36:51;;;;;;;2.80;2.37;;;;;;;26.35;30.74;98937.13;5054043;28;20204;-69
2023/04/16 10:39:21;;;;;;;3.37;2.40;;;;;;;26.09;30.90;98943.53;5071435;28;20234;-70
2023/04/16 10:41:49;;;;;;;4.70;2.53;;;;;;;25.65;32.67;98925.25;5071485;28;20644;-69
2023/04/16 10:44:18;;;;;;;2.77;2.50;;;;;;;25.81;32.30;98942.00;5071510;28;20199;-69
2023/04/16 10:46:48;;;;;;;4.60;2.50;;;;;;;25.73;32.14;98940.00;5071331;28;20210;-68
2023/04/16 10:49:16;;;;;;;3.83;2.30;;;;;;;25.90;32.22;98921.09;5071142;28;20195;-69
2023/04/16 10:51:52;;;;;;;4.90;2.57;;;;;;;26.26;32.19;98938.19;5071687;28;20196;-69
2023/04/16 10:54:21;;;;;;;3.53;2.53;;;;;;;26.29;32.36;98934.84;5068579;28;20235;-69
2023/04/16 10:56:50;;;;;;;4.77;2.83;;;;;;;26.15;31.88;98929.47;5068131;28;20575;-70
2023/04/16 10:59:19;;;;;;;3.80;2.57;;;;;;;26.03;32.08;98933.88;5065095;28;20210;-70
2023/04/16 11:01:47;;;;;;;5.20;2.40;;;;;;;26.15;32.67;98934.09;5060765;28;20650;-70
2023/04/16 11:04:33;;;;;;;2.80;2.10;;;;;;;26.40;33.31;98939.72;5059111;28;20678;-70
2023/04/16 11:07:02;;;;;;;2.43;2.20;;;;;;;26.47;31.98;98931.09;5060608;28;20295;-71
2023/04/16 11:09:46;;;;;;;2.60;2.30;;;;;;;26.41;32.95;98929.63;5070201;28;20227;-72
2023/04/16 11:12:17;;;;;;;3.63;2.47;;;;;;;26.22;32.86;98926.31;5058647;28;20275;-70
2023/04/16 11:14:47;;;;;;;5.80;2.47;;;;;;;26.20;33.68;98929.34;5072608;28;20227;-72
2023/04/16 11:17:14;;;;;;;3.73;2.50;;;;;;;25.95;33.30;98942.78;5058546;28;20575;-69
2023/04/16 11:19:42;;;;;;;6.07;2.67;;;;;;;25.65;34.33;98918.97;5065102;28;20196;-69
2023/04/16 11:22:13;;;;;;;2.90;2.40;;;;;;;25.47;34.57;98911.78;5074458;28;20261;-69
2023/04/16 11:24:40;;;;;;;4.23;2.57;;;;;;;25.31;35.27;98911.31;5074551;28;20279;-68
2023/04/16 11:27:07;;;;;;;3.97;2.93;;;;;;;25.24;35.26;98910.09;5073155;28;20225;-69
2023/04/16 11:29:35;;;;;;;3.50;2.97;;;;;;;25.12;35.98;98902.47;5072442;28;20192;-69
2023/04/16 11:32:02;;;;;;;3.50;2.27;;;;;;;25.04;36.36;98906.69;5074470;28;20192;-69